createdAt,value
2022-09-24T00:12:16.792Z,69.8
2022-09-24T00:27:25.885Z,70
2022-09-24T00:42:35.860Z,69.7
2022-09-24T00:57:44.740Z,70.3
2022-09-24T01:12:56.337Z,70.4
2022-09-24T01:28:06.177Z,70.6
2022-09-24T01:43:15.457Z,70.7
2022-09-24T01:58:25.350Z,71
2022-09-24T02:13:34.739Z,71.3
2022-09-24T02:28:44.178Z,71.6
2022-09-24T02:43:56.599Z,71.8
2022-09-24T02:59:06.185Z,72.2
2022-09-24T03:14:15.583Z,72.4
2022-09-24T03:29:25.516Z,72.8
2022-09-24T03:44:35.181Z,73
2022-09-24T03:59:45.174Z,73.2
2022-09-24T04:14:56.335Z,73.4
2022-09-24T04:30:05.585Z,73.6
2022-09-24T04:45:15.471Z,73.8
2022-09-24T05:00:25.063Z,73.9
2022-09-24T05:15:40.937Z,74
2022-09-24T05:30:52.912Z,74.2
2022-09-24T05:46:03.047Z,74.3
2022-09-24T06:01:12.679Z,74.3
2022-09-24T06:16:22.707Z,74.4
2022-09-24T06:31:33.552Z,74.5
2022-09-24T06:46:43.800Z,74.6
2022-09-24T07:01:57.320Z,74.6
2022-09-24T07:17:06.864Z,74.7
2022-09-24T07:32:17.068Z,74.7
2022-09-24T07:47:26.474Z,74.6
2022-09-24T08:02:36.491Z,74.4
2022-09-24T08:17:46.117Z,74.3
2022-09-24T08:32:56.492Z,74.4
2022-09-24T08:48:05.973Z,74.4
2022-09-24T09:03:15.906Z,74.2
2022-09-24T09:18:25.380Z,74.2
2022-09-24T09:33:35.334Z,74.1
2022-09-24T09:48:44.787Z,75
2022-09-24T10:03:56.375Z,74.2
2022-09-24T10:19:05.804Z,74.2
2022-09-24T10:34:15.905Z,74.2
2022-09-24T10:49:25.468Z,74.2
2022-09-24T11:04:39.484Z,74.2
2022-09-24T11:19:49.298Z,74.1
2022-09-24T11:34:58.732Z,74.2
2022-09-24T11:50:08.041Z,74.2
2022-09-24T12:05:17.684Z,74.3
2022-09-24T12:20:27.444Z,74.3
2022-09-24T12:38:20.269Z,76.1
2022-09-24T12:53:31.520Z,77.1
2022-09-24T13:08:41.037Z,77
2022-09-24T13:23:50.248Z,77
2022-09-24T13:38:59.380Z,76.9
2022-09-24T13:54:08.717Z,77
2022-09-24T14:09:18.734Z,76.9
2022-09-24T14:24:28.762Z,77.1
2022-09-24T14:39:38.914Z,77.1
2022-09-24T14:54:48.542Z,77.2
2022-09-24T15:09:57.932Z,77.3
2022-09-24T15:25:07.915Z,77.6
2022-09-24T15:40:17.575Z,77.8
2022-09-24T15:55:27.505Z,78
2022-09-24T16:10:36.961Z,78.5
2022-09-24T16:25:46.099Z,78.5
2022-09-24T16:40:58.182Z,78.6
2022-09-24T16:56:07.939Z,78.9
2022-09-24T17:11:17.494Z,78.7
2022-09-24T17:26:27.534Z,79.1
2022-09-24T17:41:37.214Z,78.5
2022-09-24T17:56:47.401Z,78.5
2022-09-24T18:11:56.848Z,79
2022-09-24T18:27:06.257Z,79.4
2022-09-24T18:42:15.799Z,79.7
2022-09-24T18:57:25.599Z,79.8
2022-09-24T19:12:35.042Z,79.9
2022-09-24T19:27:44.651Z,79.9
2022-09-24T19:42:57.816Z,79.9
2022-09-24T19:58:07.554Z,80.2
2022-09-24T20:13:16.768Z,80.4
2022-09-24T20:28:26.330Z,80.5
2022-09-24T20:43:35.666Z,80.7
2022-09-24T20:58:45.284Z,80.8
2022-09-24T21:13:55.399Z,80.9
2022-09-24T21:29:05.417Z,81
2022-09-24T21:44:14.850Z,81.1
2022-09-24T21:59:24.598Z,81.2
2022-09-24T22:14:33.738Z,81.4
2022-09-24T22:29:43.837Z,81.3
2022-09-24T22:44:53.554Z,81.4
2022-09-24T23:00:03.326Z,81.7
2022-09-24T23:15:12.367Z,82
2022-09-24T23:30:21.972Z,82
2022-09-24T23:45:31.071Z,82
